sensor_id;sensor_type;location;lat;lon;timestamp;P1;durP1;ratioP1;P2;durP2;ratioP2
63018;SDS011;49105;46.046;10.760;2023-03-14T00:01:24;3.90;;;3.80;;
63018;SDS011;49105;46.046;10.760;2023-03-14T00:03:56;4.10;;;3.78;;
63018;SDS011;49105;46.046;10.760;2023-03-14T00:08:53;4.20;;;4.10;;
63018;SDS011;49105;46.046;10.760;2023-03-14T00:11:28;4.40;;;4.20;;
63018;SDS011;49105;46.046;10.760;2023-03-14T00:14:00;4.53;;;4.43;;
63018;SDS011;49105;46.046;10.760;2023-03-14T00:16:26;4.00;;;3.90;;
63018;SDS011;49105;46.046;10.760;2023-03-14T00:18:58;4.57;;;4.47;;
63018;SDS011;49105;46.046;10.760;2023-03-14T00:21:24;7.90;;;4.88;;
63018;SDS011;49105;46.046;10.760;2023-03-14T00:23:50;4.47;;;4.38;;
63018;SDS011;49105;46.046;10.760;2023-03-14T00:26:22;4.95;;;4.85;;
63018;SDS011;49105;46.046;10.760;2023-03-14T00:28:54;4.38;;;4.28;;
63018;SDS011;49105;46.046;10.760;2023-03-14T00:31:29;4.50;;;4.40;;
63018;SDS011;49105;46.046;10.760;2023-03-14T00:34:01;4.88;;;4.68;;
63018;SDS011;49105;46.046;10.760;2023-03-14T00:36:35;4.25;;;4.15;;
63018;SDS011;49105;46.046;10.760;2023-03-14T00:39:01;4.80;;;4.70;;
63018;SDS011;49105;46.046;10.760;2023-03-14T00:41:33;5.05;;;4.95;;
63018;SDS011;49105;46.046;10.760;2023-03-14T00:44:08;4.60;;;4.50;;
63018;SDS011;49105;46.046;10.760;2023-03-14T00:46:33;4.78;;;4.57;;
63018;SDS011;49105;46.046;10.760;2023-03-14T00:48:59;5.38;;;5.18;;
63018;SDS011;49105;46.046;10.760;2023-03-14T00:51:30;4.80;;;4.70;;
63018;SDS011;49105;46.046;10.760;2023-03-14T00:53:56;4.90;;;4.70;;
63018;SDS011;49105;46.046;10.760;2023-03-14T00:56:27;4.60;;;4.50;;
63018;SDS011;49105;46.046;10.760;2023-03-14T00:59:02;4.35;;;4.25;;
63018;SDS011;49105;46.046;10.760;2023-03-14T01:01:27;5.75;;;5.55;;
63018;SDS011;49105;46.046;10.760;2023-03-14T01:04:02;13.38;;;5.35;;
63018;SDS011;49105;46.046;10.760;2023-03-14T01:06:33;4.38;;;4.28;;
63018;SDS011;49105;46.046;10.760;2023-03-14T01:08:59;4.07;;;3.97;;
63018;SDS011;49105;46.046;10.760;2023-03-14T01:11:37;4.10;;;4.00;;
63018;SDS011;49105;46.046;10.760;2023-03-14T01:14:05;4.80;;;4.68;;
63018;SDS011;49105;46.046;10.760;2023-03-14T01:16:43;4.40;;;4.30;;
63018;SDS011;49105;46.046;10.760;2023-03-14T01:19:09;4.10;;;4.00;;
63018;SDS011;49105;46.046;10.760;2023-03-14T01:21:35;4.40;;;4.20;;
63018;SDS011;49105;46.046;10.760;2023-03-14T01:24:02;4.28;;;4.18;;
63018;SDS011;49105;46.046;10.760;2023-03-14T01:26:38;4.93;;;4.75;;
63018;SDS011;49105;46.046;10.760;2023-03-14T01:29:03;4.57;;;4.47;;
63018;SDS011;49105;46.046;10.760;2023-03-14T01:31:41;4.40;;;4.30;;
63018;SDS011;49105;46.046;10.760;2023-03-14T01:34:06;4.70;;;4.60;;
63018;SDS011;49105;46.046;10.760;2023-03-14T01:36:41;4.78;;;4.68;;
63018;SDS011;49105;46.046;10.760;2023-03-14T01:39:13;4.70;;;4.60;;
63018;SDS011;49105;46.046;10.760;2023-03-14T01:41:39;4.97;;;4.88;;
63018;SDS011;49105;46.046;10.760;2023-03-14T01:44:14;5.50;;;5.30;;
63018;SDS011;49105;46.046;10.760;2023-03-14T01:46:45;5.30;;;5.10;;
63018;SDS011;49105;46.046;10.760;2023-03-14T01:55:15;4.90;;;4.80;;
63018;SDS011;49105;46.046;10.760;2023-03-14T01:57:45;5.45;;;5.25;;
63018;SDS011;49105;46.046;10.760;2023-03-14T02:00:25;5.40;;;5.20;;
63018;SDS011;49105;46.046;10.760;2023-03-14T02:02:58;6.20;;;5.90;;
63018;SDS011;49105;46.046;10.760;2023-03-14T02:05:34;5.80;;;5.60;;
63018;SDS011;49105;46.046;10.760;2023-03-14T02:10:44;5.32;;;5.13;;
63018;SDS011;49105;46.046;10.760;2023-03-14T02:13:12;5.65;;;5.45;;
63018;SDS011;49105;46.046;10.760;2023-03-14T02:15:39;4.95;;;4.85;;
63018;SDS011;49105;46.046;10.760;2023-03-14T02:18:05;5.63;;;5.43;;
63018;SDS011;49105;46.046;10.760;2023-03-14T02:20:47;5.30;;;5.10;;
63018;SDS011;49105;46.046;10.760;2023-03-14T02:29:01;4.78;;;4.68;;
63018;SDS011;49105;46.046;10.760;2023-03-14T02:31:27;4.68;;;4.57;;
63018;SDS011;49105;46.046;10.760;2023-03-14T02:33:52;4.95;;;4.85;;
63018;SDS011;49105;46.046;10.760;2023-03-14T02:36:28;5.47;;;5.28;;
63018;SDS011;49105;46.046;10.760;2023-03-14T02:39:08;5.60;;;5.40;;
63018;SDS011;49105;46.046;10.760;2023-03-14T02:41:55;5.10;;;5.00;;
63018;SDS011;49105;46.046;10.760;2023-03-14T02:44:28;5.68;;;5.45;;
63018;SDS011;49105;46.046;10.760;2023-03-14T02:49:22;4.65;;;4.55;;
63018;SDS011;49105;46.046;10.760;2023-03-14T02:51:54;5.75;;;5.55;;
63018;SDS011;49105;46.046;10.760;2023-03-14T02:57:02;6.05;;;5.85;;
63018;SDS011;49105;46.046;10.760;2023-03-14T02:59:34;5.35;;;5.15;;
63018;SDS011;49105;46.046;10.760;2023-03-14T03:04:50;6.50;;;6.18;;
63018;SDS011;49105;46.046;10.760;2023-03-14T03:07:15;6.25;;;5.97;;
63018;SDS011;49105;46.046;10.760;2023-03-14T03:09:40;5.15;;;5.05;;
63018;SDS011;49105;46.046;10.760;2023-03-14T03:12:06;5.63;;;5.18;;
63018;SDS011;49105;46.046;10.760;2023-03-14T03:14:40;5.40;;;5.20;;
63018;SDS011;49105;46.046;10.760;2023-03-14T03:17:15;5.68;;;5.47;;
63018;SDS011;49105;46.046;10.760;2023-03-14T03:19:46;6.30;;;6.10;;
63018;SDS011;49105;46.046;10.760;2023-03-14T03:22:12;5.07;;;4.97;;
63018;SDS011;49105;46.046;10.760;2023-03-14T03:24:44;4.80;;;4.70;;
63018;SDS011;49105;46.046;10.760;2023-03-14T03:27:09;5.57;;;5.38;;
63018;SDS011;49105;46.046;10.760;2023-03-14T03:29:35;5.88;;;5.68;;
63018;SDS011;49105;46.046;10.760;2023-03-14T03:32:15;5.95;;;5.75;;
63018;SDS011;49105;46.046;10.760;2023-03-14T03:34:41;5.45;;;5.25;;
63018;SDS011;49105;46.046;10.760;2023-03-14T03:37:07;5.47;;;5.28;;
63018;SDS011;49105;46.046;10.760;2023-03-14T03:39:32;5.15;;;4.97;;
63018;SDS011;49105;46.046;10.760;2023-03-14T03:42:00;6.22;;;6.03;;
63018;SDS011;49105;46.046;10.760;2023-03-14T03:44:26;5.45;;;5.25;;
63018;SDS011;49105;46.046;10.760;2023-03-14T03:46:57;5.47;;;5.28;;
63018;SDS011;49105;46.046;10.760;2023-03-14T03:52:01;6.30;;;6.10;;
63018;SDS011;49105;46.046;10.760;2023-03-14T03:54:26;6.18;;;5.97;;
63018;SDS011;49105;46.046;10.760;2023-03-14T03:56:53;5.75;;;5.55;;
63018;SDS011;49105;46.046;10.760;2023-03-14T03:59:19;5.38;;;5.18;;
63018;SDS011;49105;46.046;10.760;2023-03-14T04:01:54;6.00;;;5.80;;
63018;SDS011;49105;46.046;10.760;2023-03-14T04:04:25;5.88;;;5.68;;
63018;SDS011;49105;46.046;10.760;2023-03-14T04:06:58;6.18;;;5.97;;
63018;SDS011;49105;46.046;10.760;2023-03-14T04:09:33;5.80;;;5.60;;
63018;SDS011;49105;46.046;10.760;2023-03-14T04:12:04;6.07;;;5.88;;
63018;SDS011;49105;46.046;10.760;2023-03-14T04:14:39;5.85;;;5.65;;
63018;SDS011;49105;46.046;10.760;2023-03-14T04:17:15;6.10;;;5.90;;
63018;SDS011;49105;46.046;10.760;2023-03-14T04:19:41;6.00;;;5.80;;
63018;SDS011;49105;46.046;10.760;2023-03-14T04:22:07;6.22;;;6.03;;
63018;SDS011;49105;46.046;10.760;2023-03-14T04:24:43;5.90;;;5.70;;
63018;SDS011;49105;46.046;10.760;2023-03-14T04:27:14;6.55;;;6.35;;
63018;SDS011;49105;46.046;10.760;2023-03-14T04:32:06;6.13;;;5.93;;
63018;SDS011;49105;46.046;10.760;2023-03-14T04:34:31;5.93;;;5.72;;
63018;SDS011;49105;46.046;10.760;2023-03-14T04:36:57;5.60;;;5.40;;
63018;SDS011;49105;46.046;10.760;2023-03-14T04:39:29;5.40;;;5.20;;
63018;SDS011;49105;46.046;10.760;2023-03-14T04:41:54;6.10;;;5.90;;
63018;SDS011;49105;46.046;10.760;2023-03-14T04:44:25;5.72;;;5.53;;
63018;SDS011;49105;46.046;10.760;2023-03-14T04:46:51;6.32;;;6.13;;
63018;SDS011;49105;46.046;10.760;2023-03-14T04:49:26;5.95;;;5.75;;
63018;SDS011;49105;46.046;10.760;2023-03-14T04:51:51;5.80;;;5.60;;
63018;SDS011;49105;46.046;10.760;2023-03-14T04:54:23;5.97;;;5.78;;
63018;SDS011;49105;46.046;10.760;2023-03-14T04:56:52;5.78;;;5.57;;
63018;SDS011;49105;46.046;10.760;2023-03-14T04:59:21;5.85;;;5.65;;
63018;SDS011;49105;46.046;10.760;2023-03-14T05:01:52;5.28;;;4.97;;
63018;SDS011;49105;46.046;10.760;2023-03-14T05:04:18;5.05;;;4.93;;
63018;SDS011;49105;46.046;10.760;2023-03-14T05:06:49;4.97;;;4.88;;
63018;SDS011;49105;46.046;10.760;2023-03-14T05:12:27;5.53;;;5.32;;
63018;SDS011;49105;46.046;10.760;2023-03-14T05:14:53;4.97;;;4.88;;
63018;SDS011;49105;46.046;10.760;2023-03-14T05:17:28;4.82;;;4.72;;
63018;SDS011;49105;46.046;10.760;2023-03-14T05:19:59;4.90;;;4.80;;
63018;SDS011;49105;46.046;10.760;2023-03-14T05:22:28;4.97;;;4.88;;
63018;SDS011;49105;46.046;10.760;2023-03-14T05:24:59;4.35;;;4.25;;
63018;SDS011;49105;46.046;10.760;2023-03-14T05:30:03;5.43;;;5.22;;
63018;SDS011;49105;46.046;10.760;2023-03-14T05:32:39;4.90;;;4.80;;
63018;SDS011;49105;46.046;10.760;2023-03-14T05:35:04;5.78;;;5.57;;
63018;SDS011;49105;46.046;10.760;2023-03-14T05:37:30;4.80;;;4.70;;
63018;SDS011;49105;46.046;10.760;2023-03-14T05:40:02;6.22;;;6.03;;
63018;SDS011;49105;46.046;10.760;2023-03-14T05:42:34;5.50;;;5.30;;
63018;SDS011;49105;46.046;10.760;2023-03-14T05:44:59;5.47;;;5.28;;
63018;SDS011;49105;46.046;10.760;2023-03-14T05:47:25;5.55;;;5.35;;
63018;SDS011;49105;46.046;10.760;2023-03-14T05:49:53;5.10;;;5.00;;
63018;SDS011;49105;46.046;10.760;2023-03-14T05:52:25;5.28;;;5.07;;
63018;SDS011;49105;46.046;10.760;2023-03-14T05:54:51;5.10;;;4.97;;
63018;SDS011;49105;46.046;10.760;2023-03-14T05:57:17;5.53;;;5.32;;
63018;SDS011;49105;46.046;10.760;2023-03-14T05:59:42;6.10;;;5.90;;
63018;SDS011;49105;46.046;10.760;2023-03-14T06:02:08;5.82;;;5.63;;
63018;SDS011;49105;46.046;10.760;2023-03-14T06:04:36;5.63;;;5.43;;
63018;SDS011;49105;46.046;10.760;2023-03-14T06:07:01;5.63;;;5.43;;
63018;SDS011;49105;46.046;10.760;2023-03-14T06:09:33;5.45;;;5.25;;
63018;SDS011;49105;46.046;10.760;2023-03-14T06:14:42;7.80;;;5.95;;
63018;SDS011;49105;46.046;10.760;2023-03-14T06:20:04;4.72;;;4.63;;
63018;SDS011;49105;46.046;10.760;2023-03-14T06:22:36;4.88;;;4.78;;
63018;SDS011;49105;46.046;10.760;2023-03-14T06:25:13;4.75;;;4.65;;
63018;SDS011;49105;46.046;10.760;2023-03-14T06:27:45;5.20;;;5.00;;
63018;SDS011;49105;46.046;10.760;2023-03-14T06:32:57;5.25;;;5.05;;
63018;SDS011;49105;46.046;10.760;2023-03-14T06:35:25;5.07;;;4.90;;
63018;SDS011;49105;46.046;10.760;2023-03-14T06:37:57;5.03;;;4.82;;
63018;SDS011;49105;46.046;10.760;2023-03-14T06:40:22;5.32;;;5.13;;
63018;SDS011;49105;46.046;10.760;2023-03-14T06:42:54;4.68;;;4.57;;
63018;SDS011;49105;46.046;10.760;2023-03-14T06:45:19;4.80;;;4.70;;
63018;SDS011;49105;46.046;10.760;2023-03-14T06:47:45;5.55;;;5.35;;
63018;SDS011;49105;46.046;10.760;2023-03-14T06:50:10;5.55;;;5.35;;
63018;SDS011;49105;46.046;10.760;2023-03-14T06:52:36;4.90;;;4.80;;
63018;SDS011;49105;46.046;10.760;2023-03-14T06:55:02;4.97;;;4.78;;
63018;SDS011;49105;46.046;10.760;2023-03-14T06:57:28;5.47;;;5.18;;
63018;SDS011;49105;46.046;10.760;2023-03-14T06:59:59;5.55;;;5.35;;
63018;SDS011;49105;46.046;10.760;2023-03-14T07:02:31;5.63;;;5.32;;
63018;SDS011;49105;46.046;10.760;2023-03-14T07:05:06;5.18;;;4.97;;
63018;SDS011;49105;46.046;10.760;2023-03-14T07:07:38;5.20;;;5.00;;
63018;SDS011;49105;46.046;10.760;2023-03-14T07:10:03;4.50;;;4.40;;
63018;SDS011;49105;46.046;10.760;2023-03-14T07:12:35;5.72;;;5.53;;
63018;SDS011;49105;46.046;10.760;2023-03-14T07:15:07;4.97;;;4.88;;
63018;SDS011;49105;46.046;10.760;2023-03-14T07:17:42;5.05;;;4.95;;
63018;SDS011;49105;46.046;10.760;2023-03-14T07:20:08;4.93;;;4.82;;
63018;SDS011;49105;46.046;10.760;2023-03-14T07:22:34;6.35;;;6.05;;
63018;SDS011;49105;46.046;10.760;2023-03-14T07:24:59;5.53;;;5.32;;
63018;SDS011;49105;46.046;10.760;2023-03-14T07:27:25;5.57;;;5.28;;
63018;SDS011;49105;46.046;10.760;2023-03-14T07:29:53;5.78;;;5.47;;
63018;SDS011;49105;46.046;10.760;2023-03-14T07:32:18;5.38;;;5.18;;
63018;SDS011;49105;46.046;10.760;2023-03-14T07:34:44;5.70;;;5.50;;
63018;SDS011;49105;46.046;10.760;2023-03-14T07:37:16;5.47;;;5.28;;
63018;SDS011;49105;46.046;10.760;2023-03-14T07:39:41;5.65;;;5.45;;
63018;SDS011;49105;46.046;10.760;2023-03-14T07:42:07;6.32;;;6.13;;
63018;SDS011;49105;46.046;10.760;2023-03-14T07:44:39;5.30;;;5.10;;
63018;SDS011;49105;46.046;10.760;2023-03-14T07:47:10;5.10;;;5.00;;
63018;SDS011;49105;46.046;10.760;2023-03-14T07:52:07;5.00;;;4.90;;
63018;SDS011;49105;46.046;10.760;2023-03-14T07:54:39;4.50;;;4.40;;
63018;SDS011;49105;46.046;10.760;2023-03-14T07:57:10;6.05;;;5.85;;
63018;SDS011;49105;46.046;10.760;2023-03-14T07:59:45;4.80;;;4.70;;
63018;SDS011;49105;46.046;10.760;2023-03-14T08:02:16;4.30;;;4.20;;
63018;SDS011;49105;46.046;10.760;2023-03-14T08:04:45;5.00;;;4.90;;
63018;SDS011;49105;46.046;10.760;2023-03-14T08:07:16;5.90;;;5.70;;
63018;SDS011;49105;46.046;10.760;2023-03-14T08:12:19;5.53;;;5.32;;
63018;SDS011;49105;46.046;10.760;2023-03-14T08:14:45;5.10;;;5.00;;
63018;SDS011;49105;46.046;10.760;2023-03-14T08:17:11;6.13;;;5.93;;
63018;SDS011;49105;46.046;10.760;2023-03-14T08:19:40;5.53;;;5.32;;
63018;SDS011;49105;46.046;10.760;2023-03-14T08:22:12;5.22;;;5.07;;
63018;SDS011;49105;46.046;10.760;2023-03-14T08:24:56;5.80;;;5.60;;
63018;SDS011;49105;46.046;10.760;2023-03-14T08:27:32;5.93;;;5.72;;
63018;SDS011;49105;46.046;10.760;2023-03-14T08:29:57;5.72;;;5.53;;
63018;SDS011;49105;46.046;10.760;2023-03-14T08:32:23;6.53;;;5.50;;
63018;SDS011;49105;46.046;10.760;2023-03-14T08:34:54;5.63;;;5.43;;
63018;SDS011;49105;46.046;10.760;2023-03-14T08:39:54;5.78;;;5.57;;
63018;SDS011;49105;46.046;10.760;2023-03-14T08:42:26;5.65;;;5.45;;
63018;SDS011;49105;46.046;10.760;2023-03-14T08:47:23;5.53;;;5.32;;
63018;SDS011;49105;46.046;10.760;2023-03-14T08:49:52;4.80;;;4.70;;
63018;SDS011;49105;46.046;10.760;2023-03-14T08:52:23;5.38;;;5.18;;
63018;SDS011;49105;46.046;10.760;2023-03-14T08:57:33;5.97;;;5.78;;
63018;SDS011;49105;46.046;10.760;2023-03-14T09:00:07;5.57;;;5.38;;
63018;SDS011;49105;46.046;10.760;2023-03-14T09:02:37;5.25;;;5.07;;
63018;SDS011;49105;46.046;10.760;2023-03-14T09:05:03;5.45;;;5.25;;
63018;SDS011;49105;46.046;10.760;2023-03-14T09:07:41;6.20;;;6.00;;
63018;SDS011;49105;46.046;10.760;2023-03-14T09:10:13;5.95;;;5.75;;
63018;SDS011;49105;46.046;10.760;2023-03-14T09:12:38;5.70;;;5.50;;
63018;SDS011;49105;46.046;10.760;2023-03-14T09:15:04;5.50;;;5.30;;
63018;SDS011;49105;46.046;10.760;2023-03-14T09:17:30;6.25;;;6.00;;
63018;SDS011;49105;46.046;10.760;2023-03-14T09:19:55;5.90;;;5.70;;
63018;SDS011;49105;46.046;10.760;2023-03-14T09:22:21;6.20;;;6.00;;
63018;SDS011;49105;46.046;10.760;2023-03-14T09:24:46;5.30;;;5.10;;
63018;SDS011;49105;46.046;10.760;2023-03-14T09:27:18;5.28;;;5.07;;
63018;SDS011;49105;46.046;10.760;2023-03-14T09:29:49;5.57;;;5.38;;
63018;SDS011;49105;46.046;10.760;2023-03-14T09:32:21;4.88;;;4.78;;
63018;SDS011;49105;46.046;10.760;2023-03-14T09:34:49;5.55;;;5.35;;
63018;SDS011;49105;46.046;10.760;2023-03-14T09:37:24;5.03;;;4.93;;
63018;SDS011;49105;46.046;10.760;2023-03-14T09:39:52;6.05;;;5.75;;
63018;SDS011;49105;46.046;10.760;2023-03-14T09:42:19;4.72;;;4.63;;
63018;SDS011;49105;46.046;10.760;2023-03-14T09:44:56;4.30;;;4.20;;
63018;SDS011;49105;46.046;10.760;2023-03-14T09:47:27;4.60;;;4.50;;
63018;SDS011;49105;46.046;10.760;2023-03-14T09:50:05;4.50;;;4.40;;
63018;SDS011;49105;46.046;10.760;2023-03-14T09:52:39;4.05;;;3.95;;
63018;SDS011;49105;46.046;10.760;2023-03-14T09:57:38;4.30;;;4.18;;
63018;SDS011;49105;46.046;10.760;2023-03-14T10:03:36;4.20;;;4.05;;
63018;SDS011;49105;46.046;10.760;2023-03-14T10:06:02;3.53;;;3.42;;
63018;SDS011;49105;46.046;10.760;2023-03-14T10:08:42;3.78;;;3.67;;
63018;SDS011;49105;46.046;10.760;2023-03-14T10:11:13;3.90;;;3.80;;
63018;SDS011;49105;46.046;10.760;2023-03-14T10:16:38;3.92;;;3.83;;
63018;SDS011;49105;46.046;10.760;2023-03-14T10:19:08;3.53;;;3.42;;
63018;SDS011;49105;46.046;10.760;2023-03-14T10:21:50;3.63;;;3.53;;
63018;SDS011;49105;46.046;10.760;2023-03-14T10:27:17;3.95;;;3.40;;
63018;SDS011;49105;46.046;10.760;2023-03-14T10:29:51;3.60;;;3.50;;
63018;SDS011;49105;46.046;10.760;2023-03-14T10:32:22;3.35;;;3.25;;
63018;SDS011;49105;46.046;10.760;2023-03-14T10:35:04;3.70;;;3.60;;
63018;SDS011;49105;46.046;10.760;2023-03-14T10:37:50;3.58;;;3.47;;
63018;SDS011;49105;46.046;10.760;2023-03-14T10:40:18;3.33;;;3.22;;
63018;SDS011;49105;46.046;10.760;2023-03-14T10:42:54;4.25;;;4.15;;
63018;SDS011;49105;46.046;10.760;2023-03-14T10:51:19;3.70;;;3.60;;
63018;SDS011;49105;46.046;10.760;2023-03-14T10:56:17;3.47;;;3.38;;
63018;SDS011;49105;46.046;10.760;2023-03-14T10:58:52;3.55;;;3.45;;
63018;SDS011;49105;46.046;10.760;2023-03-14T11:07:38;3.35;;;3.25;;
63018;SDS011;49105;46.046;10.760;2023-03-14T11:13:16;3.58;;;3.47;;
63018;SDS011;49105;46.046;10.760;2023-03-14T11:16:06;3.22;;;3.13;;
63018;SDS011;49105;46.046;10.760;2023-03-14T11:18:58;3.63;;;3.53;;
63018;SDS011;49105;46.046;10.760;2023-03-14T11:21:41;2.80;;;2.70;;
63018;SDS011;49105;46.046;10.760;2023-03-14T11:26:51;3.35;;;3.15;;
63018;SDS011;49105;46.046;10.760;2023-03-14T11:32:13;2.40;;;2.40;;
63018;SDS011;49105;46.046;10.760;2023-03-14T11:34:53;2.20;;;2.20;;
63018;SDS011;49105;46.046;10.760;2023-03-14T11:40:26;2.50;;;2.50;;
63018;SDS011;49105;46.046;10.760;2023-03-14T11:43:00;2.70;;;2.60;;
63018;SDS011;49105;46.046;10.760;2023-03-14T11:45:54;2.20;;;2.20;;
63018;SDS011;49105;46.046;10.760;2023-03-14T11:48:37;2.40;;;2.40;;
63018;SDS011;49105;46.046;10.760;2023-03-14T11:51:52;2.30;;;2.30;;
63018;SDS011;49105;46.046;10.760;2023-03-14T11:56:37;2.65;;;2.55;;
63018;SDS011;49105;46.046;10.760;2023-03-14T11:59:20;3.60;;;3.50;;
63018;SDS011;49105;46.046;10.760;2023-03-14T12:10:50;2.60;;;2.50;;
63018;SDS011;49105;46.046;10.760;2023-03-14T12:13:19;2.30;;;2.30;;
63018;SDS011;49105;46.046;10.760;2023-03-14T12:15:55;2.10;;;2.10;;
63018;SDS011;49105;46.046;10.760;2023-03-14T12:18:32;2.23;;;2.23;;
63018;SDS011;49105;46.046;10.760;2023-03-14T12:21:00;2.45;;;2.35;;
63018;SDS011;49105;46.046;10.760;2023-03-14T12:26:25;2.72;;;2.63;;
63018;SDS011;49105;46.046;10.760;2023-03-14T12:42:36;2.20;;;2.10;;
63018;SDS011;49105;46.046;10.760;2023-03-14T12:45:29;1.85;;;1.85;;
63018;SDS011;49105;46.046;10.760;2023-03-14T12:51:03;2.45;;;2.35;;
63018;SDS011;49105;46.046;10.760;2023-03-14T12:59:33;2.10;;;2.10;;
63018;SDS011;49105;46.046;10.760;2023-03-14T13:04:44;2.30;;;2.20;;
63018;SDS011;49105;46.046;10.760;2023-03-14T13:07:11;2.30;;;2.20;;
63018;SDS011;49105;46.046;10.760;2023-03-14T13:09:54;2.10;;;2.10;;
63018;SDS011;49105;46.046;10.760;2023-03-14T13:15:56;2.22;;;2.22;;
63018;SDS011;49105;46.046;10.760;2023-03-14T13:18:35;2.70;;;2.60;;
63018;SDS011;49105;46.046;10.760;2023-03-14T13:21:22;2.10;;;2.10;;
63018;SDS011;49105;46.046;10.760;2023-03-14T13:24:00;2.70;;;2.60;;
63018;SDS011;49105;46.046;10.760;2023-03-14T13:29:19;1.90;;;1.90;;
63018;SDS011;49105;46.046;10.760;2023-03-14T13:34:59;2.22;;;2.22;;
63018;SDS011;49105;46.046;10.760;2023-03-14T13:37:38;3.03;;;2.85;;
63018;SDS011;49105;46.046;10.760;2023-03-14T13:40:18;2.80;;;2.70;;
63018;SDS011;49105;46.046;10.760;2023-03-14T13:42:59;2.80;;;2.70;;
63018;SDS011;49105;46.046;10.760;2023-03-14T13:45:40;2.40;;;2.40;;
63018;SDS011;49105;46.046;10.760;2023-03-14T13:48:09;2.05;;;2.05;;
63018;SDS011;49105;46.046;10.760;2023-03-14T13:50:49;4.18;;;2.47;;
63018;SDS011;49105;46.046;10.760;2023-03-14T13:53:23;2.40;;;2.30;;
63018;SDS011;49105;46.046;10.760;2023-03-14T13:55:49;2.30;;;2.30;;
63018;SDS011;49105;46.046;10.760;2023-03-14T13:58:29;3.08;;;2.70;;
63018;SDS011;49105;46.046;10.760;2023-03-14T14:00:57;2.15;;;2.15;;
63018;SDS011;49105;46.046;10.760;2023-03-14T14:03:36;3.10;;;3.00;;
63018;SDS011;49105;46.046;10.760;2023-03-14T14:12:04;2.63;;;2.60;;
63018;SDS011;49105;46.046;10.760;2023-03-14T14:14:42;3.03;;;2.92;;
63018;SDS011;49105;46.046;10.760;2023-03-14T14:17:15;2.60;;;2.50;;
63018;SDS011;49105;46.046;10.760;2023-03-14T14:19:45;2.90;;;2.80;;
63018;SDS011;49105;46.046;10.760;2023-03-14T14:22:12;2.97;;;2.88;;
63018;SDS011;49105;46.046;10.760;2023-03-14T14:24:44;2.60;;;2.60;;
63018;SDS011;49105;46.046;10.760;2023-03-14T14:27:14;3.25;;;3.15;;
63018;SDS011;49105;46.046;10.760;2023-03-14T14:29:42;2.70;;;2.60;;
63018;SDS011;49105;46.046;10.760;2023-03-14T14:32:19;2.92;;;2.83;;
63018;SDS011;49105;46.046;10.760;2023-03-14T14:39:59;2.90;;;2.80;;
63018;SDS011;49105;46.046;10.760;2023-03-14T14:42:35;2.92;;;2.80;;
63018;SDS011;49105;46.046;10.760;2023-03-14T14:45:18;2.50;;;2.50;;
63018;SDS011;49105;46.046;10.760;2023-03-14T14:51:22;6.22;;;2.90;;
63018;SDS011;49105;46.046;10.760;2023-03-14T14:54:03;2.95;;;2.85;;
63018;SDS011;49105;46.046;10.760;2023-03-14T14:56:35;2.95;;;2.85;;
63018;SDS011;49105;46.046;10.760;2023-03-14T14:59:18;4.13;;;3.92;;
63018;SDS011;49105;46.046;10.760;2023-03-14T15:01:54;2.70;;;2.60;;
63018;SDS011;49105;46.046;10.760;2023-03-14T15:04:30;2.20;;;2.20;;
63018;SDS011;49105;46.046;10.760;2023-03-14T15:06:56;2.10;;;2.10;;
63018;SDS011;49105;46.046;10.760;2023-03-14T15:09:21;2.10;;;2.10;;
63018;SDS011;49105;46.046;10.760;2023-03-14T15:11:48;2.80;;;2.70;;
63018;SDS011;49105;46.046;10.760;2023-03-14T15:14:20;2.00;;;2.00;;
63018;SDS011;49105;46.046;10.760;2023-03-14T15:16:54;2.17;;;2.17;;
63018;SDS011;49105;46.046;10.760;2023-03-14T15:19:21;2.03;;;2.03;;
63018;SDS011;49105;46.046;10.760;2023-03-14T15:21:49;2.15;;;2.13;;
63018;SDS011;49105;46.046;10.760;2023-03-14T15:24:21;1.98;;;1.98;;
63018;SDS011;49105;46.046;10.760;2023-03-14T15:26:56;2.15;;;2.15;;
63018;SDS011;49105;46.046;10.760;2023-03-14T15:29:22;2.00;;;2.00;;
63018;SDS011;49105;46.046;10.760;2023-03-14T15:31:56;2.38;;;2.38;;
63018;SDS011;49105;46.046;10.760;2023-03-14T15:34:31;2.78;;;2.67;;
63018;SDS011;49105;46.046;10.760;2023-03-14T15:36:56;2.10;;;2.10;;
63018;SDS011;49105;46.046;10.760;2023-03-14T15:39:33;2.10;;;2.10;;
63018;SDS011;49105;46.046;10.760;2023-03-14T15:41:59;2.28;;;2.28;;
63018;SDS011;49105;46.046;10.760;2023-03-14T15:44:25;2.20;;;2.20;;
63018;SDS011;49105;46.046;10.760;2023-03-14T15:46:50;2.30;;;2.30;;
63018;SDS011;49105;46.046;10.760;2023-03-14T15:49:22;3.15;;;3.05;;
63018;SDS011;49105;46.046;10.760;2023-03-14T15:51:56;2.83;;;2.72;;
63018;SDS011;49105;46.046;10.760;2023-03-14T15:54:31;2.63;;;2.53;;
63018;SDS011;49105;46.046;10.760;2023-03-14T15:56:57;2.97;;;2.88;;
63018;SDS011;49105;46.046;10.760;2023-03-14T15:59:31;2.63;;;2.60;;
63018;SDS011;49105;46.046;10.760;2023-03-14T16:02:06;3.40;;;3.30;;
63018;SDS011;49105;46.046;10.760;2023-03-14T16:04:40;2.97;;;2.88;;
63018;SDS011;49105;46.046;10.760;2023-03-14T16:07:06;3.05;;;2.90;;
63018;SDS011;49105;46.046;10.760;2023-03-14T16:09:41;2.70;;;2.60;;
63018;SDS011;49105;46.046;10.760;2023-03-14T16:12:06;2.30;;;2.30;;
63018;SDS011;49105;46.046;10.760;2023-03-14T16:14:42;2.70;;;2.63;;
63018;SDS011;49105;46.046;10.760;2023-03-14T16:17:08;3.50;;;3.28;;
63018;SDS011;49105;46.046;10.760;2023-03-14T16:19:35;2.60;;;2.50;;
63018;SDS011;49105;46.046;10.760;2023-03-14T16:22:01;3.25;;;3.10;;
63018;SDS011;49105;46.046;10.760;2023-03-14T16:27:48;3.00;;;2.90;;
63018;SDS011;49105;46.046;10.760;2023-03-14T16:30:13;2.60;;;2.50;;
63018;SDS011;49105;46.046;10.760;2023-03-14T16:32:39;2.47;;;2.47;;
63018;SDS011;49105;46.046;10.760;2023-03-14T16:35:05;3.13;;;3.00;;
63018;SDS011;49105;46.046;10.760;2023-03-14T16:37:37;2.72;;;2.50;;
63018;SDS011;49105;46.046;10.760;2023-03-14T16:40:08;2.97;;;2.88;;
63018;SDS011;49105;46.046;10.760;2023-03-14T16:42:37;3.22;;;3.13;;
63018;SDS011;49105;46.046;10.760;2023-03-14T16:45:12;2.83;;;2.72;;
63018;SDS011;49105;46.046;10.760;2023-03-14T16:47:40;3.05;;;2.95;;
63018;SDS011;49105;46.046;10.760;2023-03-14T16:52:50;3.72;;;3.60;;
63018;SDS011;49105;46.046;10.760;2023-03-14T16:55:24;3.58;;;3.47;;
63018;SDS011;49105;46.046;10.760;2023-03-14T17:00:40;4.05;;;3.75;;
63018;SDS011;49105;46.046;10.760;2023-03-14T17:05:37;3.72;;;3.53;;
63018;SDS011;49105;46.046;10.760;2023-03-14T17:08:16;4.38;;;4.22;;
63018;SDS011;49105;46.046;10.760;2023-03-14T17:10:42;3.90;;;3.70;;
63018;SDS011;49105;46.046;10.760;2023-03-14T17:13:08;4.15;;;4.05;;
63018;SDS011;49105;46.046;10.760;2023-03-14T17:15:34;4.15;;;4.05;;
63018;SDS011;49105;46.046;10.760;2023-03-14T17:18:08;4.25;;;4.15;;
63018;SDS011;49105;46.046;10.760;2023-03-14T17:20:33;3.90;;;3.80;;
63018;SDS011;49105;46.046;10.760;2023-03-14T17:23:05;4.75;;;4.65;;
63018;SDS011;49105;46.046;10.760;2023-03-14T17:25:44;5.00;;;4.80;;
63018;SDS011;49105;46.046;10.760;2023-03-14T17:28:11;5.45;;;5.25;;
63018;SDS011;49105;46.046;10.760;2023-03-14T17:30:36;5.75;;;5.55;;
63018;SDS011;49105;46.046;10.760;2023-03-14T17:33:02;5.25;;;4.97;;
63018;SDS011;49105;46.046;10.760;2023-03-14T17:35:37;5.43;;;5.22;;
63018;SDS011;49105;46.046;10.760;2023-03-14T17:38:05;5.57;;;5.38;;
63018;SDS011;49105;46.046;10.760;2023-03-14T17:40:46;5.38;;;5.18;;
63018;SDS011;49105;46.046;10.760;2023-03-14T17:43:13;5.38;;;5.20;;
63018;SDS011;49105;46.046;10.760;2023-03-14T17:45:55;5.60;;;5.40;;